Time;durP1;ratioP1;P1;durP2;ratioP2;P2;SDS_P1;SDS_P2;PMS_P1;PMS_P2;Temp;Humidity;BMP_temperature;BMP_pressure;BME280_temperature;BME280_humidity;BME280_pressure;Samples;Min_cycle;Max_cycle;Signal;HPM_P1;HPM_P2
2022/11/14 00:00:44;;;;;;;6.73;5.70;;;;;;;5.80;96.71;101583.75;5075609;28;20117;-34
2022/11/14 00:03:11;;;;;;;6.95;6.28;;;;;;;5.83;97.86;101586.91;5075621;28;20342;-34
2022/11/14 00:05:42;;;;;;;7.97;6.25;;;;;;;5.77;97.01;101571.53;5075178;28;20108;-34
2022/11/14 00:08:15;;;;;;;7.07;5.88;;;;;;;5.76;97.06;101574.38;5075984;28;20094;-34
2022/11/14 00:10:40;;;;;;;7.60;6.35;;;;;;;5.79;97.23;101571.34;5075865;28;20033;-34
2022/11/14 00:13:06;;;;;;;7.55;5.70;;;;;;;5.80;96.92;101571.16;5075642;28;20032;-34
2022/11/14 00:15:31;;;;;;;7.07;5.70;;;;;;;5.75;96.38;101568.19;5075800;28;20111;-34
2022/11/14 00:17:56;;;;;;;7.53;5.77;;;;;;;5.77;95.96;101568.84;5075536;28;20032;-34
2022/11/14 00:20:22;;;;;;;6.60;5.90;;;;;;;5.78;96.58;101567.00;5075228;28;20036;-34
2022/11/14 00:22:47;;;;;;;7.43;6.40;;;;;;;5.68;95.75;101556.50;5075233;28;20024;-34
2022/11/14 00:25:12;;;;;;;8.00;5.93;;;;;;;5.74;96.55;101561.16;5074430;28;20035;-34
2022/11/14 00:27:38;;;;;;;6.40;5.67;;;;;;;5.74;96.45;101566.53;5075137;28;20031;-34
2022/11/14 00:30:03;;;;;;;7.50;5.50;;;;;;;5.74;96.74;101563.00;5075221;28;20024;-34
2022/11/14 00:32:30;;;;;;;6.25;5.32;;;;;;;5.70;96.07;101562.53;5075210;28;20025;-34
2022/11/14 00:34:55;;;;;;;8.20;5.95;;;;;;;5.68;95.60;101561.88;5074891;28;20388;-34
2022/11/14 00:37:20;;;;;;;5.93;5.33;;;;;;;5.69;96.36;101558.19;5075218;28;20059;-34
2022/11/14 00:39:46;;;;;;;7.20;5.77;;;;;;;5.57;95.73;101546.22;5075446;28;20028;-34
2022/11/14 00:42:11;;;;;;;7.20;5.23;;;;;;;5.60;95.85;101551.22;5074873;28;20083;-34
2022/11/14 00:44:36;;;;;;;6.97;5.60;;;;;;;5.56;95.86;101553.44;5073546;28;20598;-34
2022/11/14 00:47:02;;;;;;;5.83;5.20;;;;;;;5.54;95.78;101554.63;5074693;28;20115;-34
2022/11/14 00:49:27;;;;;;;6.53;5.30;;;;;;;5.52;95.25;101548.63;5075234;28;20104;-34
2022/11/14 00:51:52;;;;;;;6.97;5.57;;;;;;;5.50;95.60;101542.59;5075234;28;20032;-34
2022/11/14 00:54:18;;;;;;;6.23;5.30;;;;;;;5.42;95.45;101533.59;5074622;28;20107;-34
2022/11/14 00:56:43;;;;;;;6.20;5.30;;;;;;;5.48;95.62;101547.31;5073295;28;20059;-34
2022/11/14 00:59:08;;;;;;;6.77;4.50;;;;;;;5.56;98.39;101545.41;5075042;28;20031;-34
2022/11/14 01:01:33;;;;;;;5.60;4.80;;;;;;;5.32;96.61;101516.06;5074670;28;20036;-34
2022/11/14 01:03:59;;;;;;;6.60;5.13;;;;;;;5.41;96.46;101533.75;5075097;28;20063;-34
2022/11/14 01:06:24;;;;;;;9.43;5.67;;;;;;;5.35;96.01;101531.81;5074576;28;20043;-34
2022/11/14 01:08:50;;;;;;;6.47;5.53;;;;;;;5.31;96.45;101528.63;5074044;28;20067;-34
2022/11/14 01:11:19;;;;;;;5.70;5.10;;;;;;;5.25;96.57;101524.00;5073886;28;20490;-34
2022/11/14 01:13:45;;;;;;;6.57;5.72;;;;;;;5.22;96.31;101518.16;5074466;28;20025;-34
2022/11/14 01:16:11;;;;;;;6.03;5.43;;;;;;;5.20;96.58;101521.03;5074141;28;20411;-34
2022/11/14 01:18:38;;;;;;;7.75;5.43;;;;;;;5.11;96.71;101503.31;5074343;28;20040;-34
2022/11/14 01:21:05;;;;;;;6.55;5.50;;;;;;;5.15;97.43;101521.56;5073638;28;20558;-34
2022/11/14 01:23:31;;;;;;;5.82;5.22;;;;;;;5.14;97.00;101511.03;5074140;28;20024;-34
2022/11/14 01:26:04;;;;;;;8.05;5.57;;;;;;;5.06;97.45;101508.38;5073839;28;20027;-34
2022/11/14 01:28:30;;;;;;;7.00;5.10;;;;;;;5.05;97.16;101496.84;5073588;28;20032;-34
2022/11/14 01:30:56;;;;;;;6.63;5.53;;;;;;;5.06;98.17;101500.34;5073775;28;20025;-34
2022/11/14 01:33:21;;;;;;;6.53;5.85;;;;;;;5.04;97.69;101484.47;5074158;28;20043;-34
2022/11/14 01:35:46;;;;;;;6.87;5.83;;;;;;;4.97;98.00;101486.16;5073382;28;20107;-34
2022/11/14 01:38:14;;;;;;;6.30;5.57;;;;;;;4.85;98.31;101460.81;5073498;28;20047;-34
2022/11/14 01:40:44;;;;;;;6.80;6.10;;;;;;;4.79;98.99;101454.31;5073903;28;20112;-34
2022/11/14 01:43:34;;;;;;;6.47;5.10;;;;;;;4.85;98.68;101469.69;5073819;28;20448;-34
2022/11/14 01:45:59;;;;;;;6.55;5.47;;;;;;;4.81;99.31;101460.31;5011842;28;20101;-34
2022/11/14 01:48:34;;;;;;;6.17;5.00;;;;;;;4.77;99.94;101459.00;5011683;28;20030;-34
2022/11/14 01:51:08;;;;;;;7.35;5.40;;;;;;;4.74;100.00;101450.50;5011338;28;20042;-34
2022/11/14 01:53:33;;;;;;;7.90;5.82;;;;;;;4.82;99.94;101459.31;5011528;28;20100;-34
2022/11/14 01:56:03;;;;;;;7.90;5.97;;;;;;;4.86;99.67;101454.44;5011138;28;20471;-34
2022/11/14 01:58:29;;;;;;;6.50;5.47;;;;;;;4.87;100.00;101459.59;4995421;28;20426;-34
2022/11/14 02:00:56;;;;;;;8.57;6.13;;;;;;;4.81;99.77;101454.13;5011123;28;20501;-34
2022/11/14 02:03:21;;;;;;;9.00;6.00;;;;;;;4.90;100.00;101461.94;5011606;28;20046;-34
2022/11/14 02:05:49;;;;;;;7.00;5.82;;;;;;;4.92;99.90;101459.06;5011121;28;20025;-34
2022/11/14 02:08:15;;;;;;;7.53;5.88;;;;;;;4.91;99.58;101457.41;5011388;28;20037;-34
2022/11/14 02:10:41;;;;;;;7.03;5.38;;;;;;;4.93;99.93;101455.41;5010984;28;20041;-34
2022/11/14 02:13:07;;;;;;;6.13;5.53;;;;;;;4.87;99.74;101450.72;5011588;28;20034;-34
2022/11/14 02:15:33;;;;;;;6.35;5.25;;;;;;;4.86;99.03;101454.44;4994703;28;20084;-34
2022/11/14 02:18:00;;;;;;;5.95;4.75;;;;;;;4.88;99.98;101455.06;5011378;28;20029;-34
2022/11/14 02:20:31;;;;;;;7.63;5.68;;;;;;;4.76;99.48;101437.75;5011404;28;20045;-34
2022/11/14 02:22:57;;;;;;;7.60;5.68;;;;;;;4.73;99.66;101438.94;5042603;28;20036;-34
2022/11/14 02:25:22;;;;;;;6.77;5.13;;;;;;;4.82;100.00;101440.53;5072821;28;20497;-34
2022/11/14 02:27:49;;;;;;;6.93;5.05;;;;;;;4.69;99.26;101436.81;5072913;28;20036;-34
2022/11/14 02:30:19;;;;;;;6.05;5.13;;;;;;;4.71;99.66;101448.19;5072711;28;20028;-34
2022/11/14 02:32:45;;;;;;;7.20;5.50;;;;;;;4.69;99.64;101440.31;5072518;28;20036;-34
2022/11/14 02:35:11;;;;;;;6.22;5.30;;;;;;;4.70;99.71;101444.66;5072505;28;20480;-34
2022/11/14 02:37:37;;;;;;;6.43;5.75;;;;;;;4.74;100.00;101450.50;5073008;28;20381;-34
2022/11/14 02:40:04;;;;;;;7.75;6.18;;;;;;;4.70;100.00;101443.84;5072927;28;20361;-34
2022/11/14 02:42:29;;;;;;;7.28;5.50;;;;;;;4.65;100.00;101449.72;5072861;28;20032;-34
2022/11/14 02:44:54;;;;;;;8.20;6.73;;;;;;;4.66;100.00;101451.38;5072350;28;20030;-34
2022/11/14 02:47:20;;;;;;;8.67;6.90;;;;;;;4.69;100.00;101451.03;5073235;28;20044;-34
2022/11/14 02:49:45;;;;;;;6.67;5.97;;;;;;;4.61;100.00;101441.19;5072505;28;20024;-34
2022/11/14 02:52:10;;;;;;;6.83;5.93;;;;;;;4.62;100.00;101442.03;5072783;28;20047;-34
2022/11/14 02:54:35;;;;;;;6.83;6.13;;;;;;;4.58;100.00;101435.34;5072603;28;20039;-34
2022/11/14 02:57:01;;;;;;;7.10;6.10;;;;;;;4.35;100.00;101404.03;5073143;28;20053;-34
2022/11/14 02:59:26;;;;;;;8.23;6.07;;;;;;;4.55;100.00;101435.72;5073235;28;20461;-34
2022/11/14 03:01:51;;;;;;;9.17;5.87;;;;;;;4.46;100.00;101428.75;5072756;28;20037;-34
2022/11/14 03:04:17;;;;;;;7.70;6.50;;;;;;;4.41;99.85;101428.44;5072745;28;20029;-34
2022/11/14 03:06:42;;;;;;;7.57;6.57;;;;;;;4.44;100.00;101428.06;5072178;28;20025;-34
2022/11/14 03:09:07;;;;;;;8.20;6.30;;;;;;;4.42;100.00;101430.09;5072481;28;20020;-34
2022/11/14 03:11:33;;;;;;;8.20;6.80;;;;;;;4.33;100.00;101422.09;5072589;28;20051;-34
2022/11/14 03:13:58;;;;;;;7.40;6.37;;;;;;;4.33;100.00;101419.44;5072654;28;20071;-34
2022/11/14 03:16:24;;;;;;;8.68;6.40;;;;;;;4.26;100.00;101418.47;5072328;28;20024;-34
2022/11/14 03:18:49;;;;;;;7.50;6.80;;;;;;;4.26;100.00;101415.81;5071565;28;20028;-34
2022/11/14 03:21:18;;;;;;;9.07;6.80;;;;;;;4.21;100.00;101409.31;5072520;28;20060;-34
2022/11/14 03:23:43;;;;;;;8.55;6.32;;;;;;;4.21;100.00;101412.00;5072195;28;20073;-34
2022/11/14 03:26:10;;;;;;;7.82;6.80;;;;;;;4.20;100.00;101412.97;5072926;28;20399;-34
2022/11/14 03:28:37;;;;;;;8.27;6.45;;;;;;;4.16;100.00;101414.34;5072167;28;20020;-34
2022/11/14 03:31:02;;;;;;;7.70;6.47;;;;;;;4.16;100.00;101407.16;5072077;28;20020;-34
2022/11/14 03:33:28;;;;;;;8.00;6.87;;;;;;;4.12;100.00;101404.00;5072967;28;20056;-34
2022/11/14 03:35:53;;;;;;;7.57;6.67;;;;;;;4.02;100.00;101394.50;5070970;28;20626;-34
2022/11/14 03:38:21;;;;;;;9.20;6.83;;;;;;;4.09;100.00;101404.31;5072437;28;20036;-34
2022/11/14 03:40:48;;;;;;;7.85;5.70;;;;;;;4.14;100.00;101398.44;5072219;28;20486;-34
2022/11/14 03:43:13;;;;;;;;;;;;;;;4.20;100.00;101400.44;5071267;28;20475;-34
2022/11/14 03:45:38;;;;;;;9.13;6.63;;;;;;;4.06;100.00;101393.16;5070568;28;19908;-34
2022/11/14 03:48:05;;;;;;;7.63;5.97;;;;;;;4.12;100.00;101397.81;5072023;28;20267;-34
2022/11/14 03:50:30;;;;;;;8.45;6.28;;;;;;;4.05;100.00;101399.50;5071550;28;20035;-34
2022/11/14 03:52:55;;;;;;;8.90;7.00;;;;;;;3.93;100.00;101387.53;5072185;28;20041;-34
2022/11/14 03:55:21;;;;;;;9.13;6.80;;;;;;;4.02;100.00;101397.19;5070729;28;20032;-34
2022/11/14 03:57:46;;;;;;;9.33;6.63;;;;;;;4.00;100.00;101399.19;5071865;28;20053;-34
2022/11/14 04:00:12;;;;;;;8.30;6.53;;;;;;;3.98;100.00;101393.19;5072409;28;20461;-34
2022/11/14 04:02:37;;;;;;;12.63;7.32;;;;;;;3.91;100.00;101395.75;5075867;28;20112;-34
2022/11/14 04:05:03;;;;;;;10.87;7.40;;;;;;;3.82;100.00;101376.19;5075479;28;20024;-34
2022/11/14 04:07:28;;;;;;;8.07;6.93;;;;;;;3.88;100.00;101388.88;5075958;28;20419;-34
2022/11/14 04:09:53;;;;;;;9.30;8.33;;;;;;;3.87;100.00;101381.03;5075449;28;20032;-34
2022/11/14 04:12:19;;;;;;;8.63;7.50;;;;;;;3.74;100.00;101368.19;5076037;28;20078;-34
2022/11/14 04:14:44;;;;;;;10.10;8.30;;;;;;;3.73;100.00;101377.25;5074988;28;20029;-34
2022/11/14 04:17:09;;;;;;;9.57;8.57;;;;;;;3.71;100.00;101368.56;5075763;28;20021;-34
2022/11/14 04:19:35;;;;;;;13.77;8.80;;;;;;;3.72;100.00;101370.22;5075888;28;20128;-34
2022/11/14 04:22:00;;;;;;;9.80;8.10;;;;;;;3.73;100.00;101371.06;5075440;28;20047;-34
2022/11/14 04:24:26;;;;;;;9.55;8.00;;;;;;;3.71;100.00;101365.03;5075429;28;20526;-34
2022/11/14 04:26:51;;;;;;;11.33;8.43;;;;;;;3.74;100.00;101356.66;5075585;28;20510;-34
2022/11/14 04:29:16;;;;;;;11.00;9.13;;;;;;;3.67;100.00;101351.19;5075169;28;20028;-34
2022/11/14 04:31:42;;;;;;;9.93;8.27;;;;;;;3.70;100.00;101360.69;5074957;28;20067;-34
2022/11/14 04:34:07;;;;;;;10.67;8.73;;;;;;;3.67;100.00;101356.53;5075319;28;20056;-34
2022/11/14 04:36:32;;;;;;;14.33;8.90;;;;;;;3.66;100.00;101359.38;5074680;28;20024;-34
2022/11/14 04:38:58;;;;;;;11.47;9.07;;;;;;;3.59;100.00;101340.50;5075182;28;20032;-34
2022/11/14 04:41:23;;;;;;;10.80;8.60;;;;;;;3.64;100.00;101354.19;5074950;28;20037;-34
2022/11/14 04:43:48;;;;;;;11.37;9.27;;;;;;;3.69;100.00;101359.03;5074890;28;20032;-34
2022/11/14 04:46:13;;;;;;;11.47;8.53;;;;;;;3.62;100.00;101348.19;5074801;28;20025;-34
2022/11/14 04:48:39;;;;;;;11.60;9.00;;;;;;;3.68;100.00;101354.69;5073454;28;20574;-34
2022/11/14 04:51:04;;;;;;;13.77;8.30;;;;;;;3.63;100.00;101352.53;5074495;28;20028;-34
2022/11/14 04:53:30;;;;;;;12.53;9.23;;;;;;;3.60;100.00;101355.53;5074633;28;20036;-34
2022/11/14 04:55:55;;;;;;;10.57;8.43;;;;;;;3.59;100.00;101345.88;5074149;28;20039;-34
2022/11/14 04:58:20;;;;;;;10.90;8.17;;;;;;;3.56;100.00;101354.22;5074606;28;20028;-34
2022/11/14 05:00:45;;;;;;;11.57;8.73;;;;;;;3.39;100.00;101326.72;5074756;28;20078;-34
2022/11/14 05:03:11;;;;;;;10.67;8.40;;;;;;;3.44;100.00;101351.09;5074811;28;20102;-34
2022/11/14 05:05:36;;;;;;;11.47;8.63;;;;;;;3.32;100.00;101334.59;5074516;28;20024;-34
2022/11/14 05:08:01;;;;;;;13.97;9.17;;;;;;;3.38;100.00;101346.44;5074302;28;20433;-34
2022/11/14 05:10:27;;;;;;;12.93;9.70;;;;;;;3.38;100.00;101343.78;5074183;28;20020;-34
2022/11/14 05:12:53;;;;;;;13.30;9.00;;;;;;;3.39;100.00;101341.94;5074389;28;20104;-34
2022/11/14 05:15:18;;;;;;;14.73;9.45;;;;;;;3.42;100.00;101338.91;5073935;28;20115;-34
2022/11/14 05:17:44;;;;;;;10.87;8.53;;;;;;;3.42;100.00;101338.91;5074418;28;20163;-34
2022/11/14 05:20:10;;;;;;;9.30;8.23;;;;;;;3.41;100.00;101331.88;5074393;28;20032;-34
2022/11/14 05:22:35;;;;;;;10.52;8.70;;;;;;;3.35;100.00;101315.53;5074125;28;20025;-34
2022/11/14 05:25:01;;;;;;;12.10;9.27;;;;;;;3.39;100.00;101323.22;5074267;28;20048;-34
2022/11/14 05:27:27;;;;;;;13.40;10.17;;;;;;;3.35;100.00;101320.03;5073722;28;20499;-34
2022/11/14 05:29:54;;;;;;;12.20;9.23;;;;;;;3.32;100.00;101318.56;5073023;28;20028;-34
2022/11/14 05:32:20;;;;;;;10.43;8.30;;;;;;;3.34;100.00;101321.88;5074286;28;20427;-34
2022/11/14 05:34:45;;;;;;;12.10;8.90;;;;;;;3.26;100.00;101308.53;5073696;28;20479;-34
2022/11/14 05:37:10;;;;;;;11.13;7.97;;;;;;;3.26;100.00;101305.84;5073976;28;20099;-34
2022/11/14 05:39:36;;;;;;;10.03;8.50;;;;;;;3.22;100.00;101304.56;5073465;28;20389;-34
2022/11/14 05:42:01;;;;;;;10.77;8.93;;;;;;;3.28;100.00;101319.91;5073632;28;20051;-34
2022/11/14 05:44:26;;;;;;;13.07;8.67;;;;;;;3.32;100.00;101320.41;5073630;28;20040;-34
2022/11/14 05:46:52;;;;;;;10.83;8.20;;;;;;;3.33;100.00;101314.03;5073548;28;20047;-34
2022/11/14 05:49:17;;;;;;;11.67;8.83;;;;;;;3.30;100.00;101315.22;5073586;28;20476;-34
2022/11/14 05:51:42;;;;;;;10.90;7.87;;;;;;;3.26;100.00;101305.84;5073398;28;20068;-34
2022/11/14 05:54:08;;;;;;;10.53;8.30;;;;;;;3.22;100.00;101299.22;5073190;28;20034;-34
2022/11/14 05:56:33;;;;;;;12.70;9.03;;;;;;;3.21;100.00;101294.84;5073503;28;20424;-34
2022/11/14 05:58:58;;;;;;;10.17;7.90;;;;;;;3.19;100.00;101294.19;5074037;28;20044;-34
2022/11/14 06:01:24;;;;;;;9.57;7.93;;;;;;;3.26;100.00;101305.84;5073297;28;20544;-34
2022/11/14 06:03:49;;;;;;;9.40;7.73;;;;;;;3.24;100.00;101302.53;5073433;28;20035;-34
2022/11/14 06:06:19;;;;;;;8.60;7.57;;;;;;;3.27;100.00;101302.22;5073642;28;20036;-34
2022/11/14 06:08:45;;;;;;;9.75;8.18;;;;;;;3.21;100.00;101291.34;5073331;28;20196;-34
2022/11/14 06:11:16;;;;;;;10.48;7.55;;;;;;;3.25;100.00;101298.84;5073736;28;20107;-34
2022/11/14 06:13:42;;;;;;;9.07;7.47;;;;;;;3.33;100.00;101306.03;5073632;28;20404;-34
2022/11/14 06:16:13;;;;;;;12.70;8.30;;;;;;;3.24;100.00;101302.53;5073040;28;20056;-34
2022/11/14 06:18:39;;;;;;;11.25;7.43;;;;;;;3.25;100.00;101306.03;5072713;28;20029;-34
2022/11/14 06:21:13;;;;;;;8.82;7.35;;;;;;;3.29;100.00;101305.53;5072899;28;20032;-34
2022/11/14 06:23:38;;;;;;;11.85;7.63;;;;;;;3.30;100.00;101312.53;5072621;28;20024;-34
2022/11/14 06:26:06;;;;;;;11.23;7.60;;;;;;;3.21;100.00;101310.88;5073567;28;20058;-34
2022/11/14 06:28:32;;;;;;;11.70;8.00;;;;;;;3.13;100.00;101316.28;5073095;28;20070;-34
2022/11/14 06:31:03;;;;;;;8.80;7.90;;;;;;;3.20;100.00;101317.25;5072769;28;20422;-34
2022/11/14 06:33:35;;;;;;;11.15;8.13;;;;;;;3.15;100.00;101311.59;5073013;28;20075;-34
2022/11/14 06:36:03;;;;;;;11.35;8.20;;;;;;;3.12;100.00;101313.75;5072565;28;20025;-34
2022/11/14 06:38:33;;;;;;;10.00;7.38;;;;;;;3.06;100.00;101297.41;5073392;28;20365;-34
2022/11/14 06:41:14;;;;;;;10.13;7.35;;;;;;;3.17;100.00;101309.56;5072614;28;20465;-34
2022/11/14 06:43:41;;;;;;;10.95;8.75;;;;;;;3.05;100.00;101300.25;5072700;28;20059;-34
2022/11/14 06:46:09;;;;;;;10.57;8.05;;;;;;;2.96;100.00;101294.09;5073022;28;20033;-34
2022/11/14 06:48:35;;;;;;;11.18;7.70;;;;;;;3.01;100.00;101309.59;5072659;28;20127;-34
2022/11/14 06:51:02;;;;;;;10.00;7.68;;;;;;;2.98;100.00;101304.63;5072784;28;20433;-34
2022/11/14 06:53:29;;;;;;;10.07;7.47;;;;;;;2.99;100.00;101311.63;5072775;28;20052;-34
2022/11/14 06:56:00;;;;;;;11.10;7.68;;;;;;;3.04;100.00;101312.78;5072918;28;20520;-34
2022/11/14 06:58:33;;;;;;;9.80;7.05;;;;;;;2.99;100.00;101319.63;5072344;28;20086;-34
2022/11/14 07:01:24;;;;;;;8.57;7.22;;;;;;;3.03;100.00;101319.13;5072288;28;20067;-34
2022/11/14 07:03:50;;;;;;;10.07;6.00;;;;;;;3.04;100.00;101309.28;5072697;28;20033;-34
2022/11/14 07:06:18;;;;;;;10.75;7.45;;;;;;;3.00;100.00;101323.97;5072453;28;20434;-34
2022/11/14 07:08:43;;;;;;;10.50;6.57;;;;;;;3.14;100.00;101317.09;5072527;28;20059;-34
2022/11/14 07:11:21;;;;;;;9.77;7.10;;;;;;;3.05;100.00;101325.13;5072464;28;20060;-34
2022/11/14 07:13:46;;;;;;;10.93;7.82;;;;;;;3.07;100.00;101320.47;5072064;28;20028;-34
2022/11/14 07:16:12;;;;;;;10.80;7.20;;;;;;;3.05;100.00;101317.13;5072445;28;20029;-34
2022/11/14 07:18:37;;;;;;;11.00;7.93;;;;;;;2.94;100.00;101314.81;5072961;28;20063;-34
2022/11/14 07:21:05;;;;;;;10.83;8.87;;;;;;;2.97;100.00;101325.13;5072073;28;20032;-34
2022/11/14 07:23:34;;;;;;;11.38;8.18;;;;;;;3.03;100.00;101319.13;5072287;28;20025;-34
2022/11/14 07:26:07;;;;;;;15.50;8.63;;;;;;;3.01;100.00;101320.28;5072960;28;20028;-34
2022/11/14 07:28:38;;;;;;;13.85;8.38;;;;;;;3.05;100.00;101329.66;5072708;28;20040;-34
2022/11/14 07:31:05;;;;;;;11.82;8.40;;;;;;;3.09;100.00;101320.28;5072145;28;20028;-34
2022/11/14 07:33:31;;;;;;;10.68;7.80;;;;;;;3.08;100.00;101323.97;5072396;28;20483;-34
2022/11/14 07:35:57;;;;;;;13.57;7.85;;;;;;;3.15;100.00;101322.28;5074059;28;20032;-34
2022/11/14 07:38:22;;;;;;;11.80;7.77;;;;;;;3.13;100.00;101316.28;5076095;28;20028;-34
2022/11/14 07:41:02;;;;;;;11.70;7.57;;;;;;;3.21;100.00;101316.22;5076247;28;20032;-34
2022/11/14 07:43:28;;;;;;;13.05;8.15;;;;;;;3.17;100.00;101320.25;5076512;28;20021;-34
2022/11/14 07:45:58;;;;;;;11.93;8.13;;;;;;;3.20;100.00;101300.38;5074575;28;20024;-34
2022/11/14 07:48:23;;;;;;;11.38;7.32;;;;;;;3.24;100.00;101305.22;5075600;28;20035;-34
2022/11/14 07:50:48;;;;;;;10.13;7.93;;;;;;;3.33;100.00;101301.50;5075795;28;20032;-34
2022/11/14 07:53:15;;;;;;;9.07;7.53;;;;;;;3.24;100.00;101272.31;5075568;28;20040;-34
2022/11/14 07:55:40;;;;;;;8.77;7.55;;;;;;;3.44;100.00;101296.78;5075687;28;20112;-34
2022/11/14 07:58:06;;;;;;;18.23;10.87;;;;;;;3.56;100.00;101300.75;5076255;28;20110;-34
2022/11/14 08:00:31;;;;;;;13.23;9.00;;;;;;;3.52;100.00;101300.28;5075363;28;20437;-34
2022/11/14 08:02:56;;;;;;;11.83;8.50;;;;;;;3.46;100.00;101276.88;5075630;28;20103;-34
2022/11/14 08:05:21;;;;;;;13.27;7.70;;;;;;;3.62;100.00;101294.72;5075556;28;20031;-34
2022/11/14 08:07:51;;;;;;;9.27;7.47;;;;;;;3.59;100.00;101279.00;5076045;28;20029;-34
2022/11/14 08:10:17;;;;;;;9.65;7.13;;;;;;;3.74;100.00;101295.16;5075928;28;20099;-34
2022/11/14 08:12:43;;;;;;;9.25;7.53;;;;;;;3.74;100.00;101293.31;5075416;28;20020;-34
2022/11/14 08:15:09;;;;;;;;;;;;;;;3.85;100.00;101292.06;5076088;28;20055;-34
2022/11/14 08:17:35;;;;;;;8.35;6.95;;;;;;;3.83;100.00;101291.41;5074651;28;19920;-34
2022/11/14 08:20:00;;;;;;;9.50;7.60;;;;;;;3.88;100.00;101286.38;5074003;28;20029;-34
2022/11/14 08:22:25;;;;;;;9.20;7.57;;;;;;;3.90;100.00;101276.31;5076053;28;20039;-34
2022/11/14 08:24:51;;;;;;;9.33;8.00;;;;;;;3.98;100.00;101275.44;5075140;28;20113;-34
2022/11/14 08:27:16;;;;;;;8.87;6.93;;;;;;;4.02;100.00;101274.09;5075657;28;20054;-34
2022/11/14 08:29:41;;;;;;;11.97;7.73;;;;;;;4.12;100.00;101280.03;5075316;28;20373;-34
2022/11/14 08:32:07;;;;;;;11.87;7.40;;;;;;;4.20;100.00;101273.78;5074778;28;20370;-34
2022/11/14 08:34:32;;;;;;;10.60;7.00;;;;;;;4.23;100.00;101276.94;5074785;28;20031;-34
2022/11/14 08:36:57;;;;;;;10.67;7.07;;;;;;;4.27;100.00;101270.22;5075058;28;20087;-34
2022/11/14 08:39:23;;;;;;;10.17;6.93;;;;;;;4.31;100.00;101263.50;5074887;28;20029;-34
2022/11/14 08:41:48;;;;;;;8.70;6.90;;;;;;;4.49;100.00;101273.03;5075081;28;20423;-34
2022/11/14 08:44:14;;;;;;;9.23;7.33;;;;;;;4.56;100.00;101266.78;5074954;28;20093;-34
2022/11/14 08:46:39;;;;;;;10.88;7.05;;;;;;;4.61;100.00;101253.69;5074527;28;20070;-34
2022/11/14 08:49:05;;;;;;;8.07;6.53;;;;;;;4.66;100.00;101247.78;5074808;28;20035;-34
2022/11/14 08:51:30;;;;;;;9.73;7.60;;;;;;;4.80;100.00;101262.22;5074615;28;20036;-34
2022/11/14 08:53:55;;;;;;;10.90;7.80;;;;;;;4.86;100.00;101259.63;5074882;28;20056;-34
2022/11/14 08:56:21;;;;;;;10.53;7.60;;;;;;;5.01;100.00;101256.97;5074370;28;20488;-34
2022/11/14 08:58:46;;;;;;;7.78;6.90;;;;;;;5.03;100.00;101260.31;5074768;28;20044;-34
2022/11/14 09:01:11;;;;;;;11.03;7.20;;;;;;;5.09;100.00;101253.38;5074242;28;20029;-34
2022/11/14 09:03:36;;;;;;;10.20;7.30;;;;;;;5.18;100.00;101256.81;5074748;28;20021;-34
2022/11/14 09:06:02;;;;;;;8.87;6.93;;;;;;;5.16;100.00;101243.56;5074467;28;20403;-34
2022/11/14 09:08:28;;;;;;;11.25;6.65;;;;;;;5.23;100.00;101225.72;5074364;28;20025;-34
2022/11/14 09:10:53;;;;;;;8.45;7.10;;;;;;;5.36;100.00;101241.97;5074234;28;20163;-34
2022/11/14 09:13:19;;;;;;;7.93;6.80;;;;;;;5.48;100.00;101249.56;5075090;28;20052;-34
2022/11/14 09:15:45;;;;;;;11.33;6.57;;;;;;;5.57;100.00;101248.44;5074258;28;20456;-34
2022/11/14 09:18:11;;;;;;;12.30;7.53;;;;;;;5.60;100.00;101242.66;5073905;28;20103;-34
2022/11/14 09:20:36;;;;;;;;;;;;;;;5.75;100.00;101238.09;5074598;28;20111;-34
2022/11/14 09:23:02;;;;;;;8.32;6.68;;;;;;;5.81;100.00;101229.31;5074803;28;19983;-34
2022/11/14 09:25:29;;;;;;;12.20;7.22;;;;;;;5.87;100.00;101233.06;5074381;28;20376;-34
2022/11/14 09:27:54;;;;;;;12.35;7.75;;;;;;;5.91;100.00;101232.53;5074179;28;20029;-34
2022/11/14 09:30:21;;;;;;;10.00;6.88;;;;;;;5.96;99.65;101233.81;5074802;28;20426;-34
2022/11/14 09:32:47;;;;;;;9.23;6.50;;;;;;;6.04;100.00;101223.75;5074127;28;20033;-34
2022/11/14 09:35:13;;;;;;;9.43;7.25;;;;;;;6.09;100.00;101229.38;5072576;28;20030;-34
2022/11/14 09:37:38;;;;;;;11.60;7.17;;;;;;;6.15;99.53;101230.50;5074471;28;20028;-34
2022/11/14 09:40:04;;;;;;;9.18;7.68;;;;;;;6.17;99.96;101231.94;5073841;28;20508;-34
2022/11/14 09:43:21;;;;;;;9.02;7.97;;;;;;;6.25;100.00;101216.75;5074001;28;20051;-34
2022/11/14 09:45:51;;;;;;;10.43;7.05;;;;;;;6.21;100.00;101194.81;5011867;28;20104;-34
2022/11/14 09:48:26;;;;;;;7.82;7.00;;;;;;;6.38;99.86;101212.28;5012240;28;20458;-34
2022/11/14 09:51:04;;;;;;;11.40;7.55;;;;;;;6.51;99.73;101208.06;5012269;28;20029;-34
2022/11/14 09:53:35;;;;;;;10.27;7.95;;;;;;;6.51;98.83;101202.69;5011625;28;20046;-34
2022/11/14 09:56:02;;;;;;;11.25;8.23;;;;;;;6.67;98.85;101223.88;5011603;28;20065;-34
2022/11/14 09:58:27;;;;;;;10.93;7.70;;;;;;;6.71;98.24;101222.47;5010981;28;20435;-34
2022/11/14 10:01:14;;;;;;;13.38;8.77;;;;;;;6.59;98.55;101189.13;5011408;28;20433;-34
2022/11/14 10:03:53;;;;;;;9.25;8.15;;;;;;;6.79;98.46;101216.13;5011933;28;20041;-34
2022/11/14 10:06:30;;;;;;;11.18;8.48;;;;;;;6.77;99.43;101207.41;5011653;28;20049;-34
2022/11/14 10:09:34;;;;;;;12.40;9.32;;;;;;;6.91;99.56;101215.34;5011985;28;20052;-34
2022/11/14 10:12:11;;;;;;;11.75;8.88;;;;;;;6.89;98.19;101212.03;4992080;28;20057;-34
2022/11/14 10:14:58;;;;;;;11.30;8.65;;;;;;;7.00;98.41;101209.81;4991992;28;20054;-34
2022/11/14 10:17:42;;;;;;;10.52;8.85;;;;;;;7.08;98.61;101217.75;4975669;28;20053;-34
2022/11/14 10:20:17;;;;;;;10.82;8.98;;;;;;;7.03;98.45;101196.81;4991755;28;20435;-34
2022/11/14 10:23:07;;;;;;;10.73;9.05;;;;;;;7.19;98.71;101214.47;5011176;28;20080;-34
2022/11/14 10:25:33;;;;;;;12.35;9.75;;;;;;;7.24;97.41;101209.34;5011372;28;20033;-34
2022/11/14 10:28:10;;;;;;;14.47;11.20;;;;;;;7.34;97.42;101215.16;5011630;28;20091;-34
2022/11/14 10:30:41;;;;;;;11.43;10.23;;;;;;;7.38;97.63;101208.34;4994738;28;20049;-34
2022/11/14 10:33:30;;;;;;;11.45;9.90;;;;;;;7.49;97.74;101212.31;5011278;28;20469;-34
2022/11/14 10:36:06;;;;;;;12.70;9.98;;;;;;;7.58;96.73;101197.66;5011030;28;20050;-34
2022/11/14 10:38:40;;;;;;;15.00;10.80;;;;;;;7.59;97.88;101190.41;5010821;28;20137;-34
2022/11/14 10:41:08;;;;;;;11.10;9.85;;;;;;;7.68;96.70;101202.66;5010821;28;20037;-34
2022/11/14 10:43:44;;;;;;;11.30;10.10;;;;;;;7.65;97.18;101189.59;5063475;28;20043;-34
2022/11/14 10:46:18;;;;;;;11.85;10.65;;;;;;;7.72;96.13;101190.44;5073134;28;20051;-34
2022/11/14 10:48:49;;;;;;;12.63;10.48;;;;;;;7.80;96.33;101201.00;5073026;28;20055;-34
2022/11/14 10:51:31;;;;;;;11.68;9.75;;;;;;;7.87;95.79;101193.78;5072949;28;20383;-34
2022/11/14 10:54:08;;;;;;;12.18;10.18;;;;;;;7.94;95.88;101196.47;5072811;28;20028;-34
2022/11/14 10:56:33;;;;;;;15.13;11.25;;;;;;;7.93;95.59;101182.19;5072719;28;20574;-34
2022/11/14 10:58:59;;;;;;;11.60;10.40;;;;;;;8.00;95.45;101183.06;5072506;28;20028;-34
2022/11/14 11:01:45;;;;;;;14.93;10.50;;;;;;;8.10;95.64;101195.25;5072766;28;20028;-34
2022/11/14 11:04:21;;;;;;;15.20;10.40;;;;;;;8.11;95.37;101183.47;5072737;28;20055;-34
2022/11/14 11:06:55;;;;;;;14.32;11.13;;;;;;;8.00;94.22;101166.88;5073189;28;20031;-34
2022/11/14 11:12:07;;;;;;;12.85;11.55;;;;;;;8.10;95.25;101160.25;5076974;28;20035;-34
2022/11/14 11:14:33;;;;;;;14.52;11.70;;;;;;;8.16;95.26;101159.44;5076916;28;20024;-34
2022/11/14 11:17:10;;;;;;;14.18;11.68;;;;;;;8.15;95.41;101147.84;5076386;28;20032;-34
2022/11/14 11:19:38;;;;;;;13.57;12.10;;;;;;;8.19;95.32;101159.00;5076281;28;20031;-34
2022/11/14 11:22:21;;;;;;;14.27;12.15;;;;;;;8.22;95.37;101148.66;5076527;28;20040;-34
2022/11/14 11:24:47;;;;;;;15.63;12.77;;;;;;;8.27;95.32;101145.34;5076509;28;20104;-34
2022/11/14 11:27:17;;;;;;;13.73;12.20;;;;;;;8.31;95.12;101135.78;5076389;28;20533;-34
2022/11/14 11:29:42;;;;;;;14.05;12.43;;;;;;;8.37;94.83;101140.38;5076417;28;20384;-34